sensor_id;sensor_type;location;lat;lon;timestamp;P1;durP1;ratioP1;P2;durP2;ratioP2
76098;SDS011;64828;49.956;8.636;2023-03-01T00:00:05;19.10;;;11.40;;
76098;SDS011;64828;49.956;8.636;2023-03-01T00:00:22;18.27;;;11.43;;
76098;SDS011;64828;49.956;8.636;2023-03-01T00:00:37;17.13;;;10.87;;
76098;SDS011;64828;49.956;8.636;2023-03-01T00:00:53;19.52;;;11.18;;
76098;SDS011;64828;49.956;8.636;2023-03-01T00:01:27;18.50;;;11.35;;
76098;SDS011;64828;49.956;8.636;2023-03-01T00:01:45;17.98;;;11.48;;
76098;SDS011;64828;49.956;8.636;2023-03-01T00:02:00;17.60;;;11.45;;
76098;SDS011;64828;49.956;8.636;2023-03-01T00:02:16;19.27;;;11.57;;
76098;SDS011;64828;49.956;8.636;2023-03-01T00:02:32;18.50;;;11.10;;
76098;SDS011;64828;49.956;8.636;2023-03-01T00:02:47;17.70;;;10.77;;
76098;SDS011;64828;49.956;8.636;2023-03-01T00:03:03;17.57;;;10.73;;
76098;SDS011;64828;49.956;8.636;2023-03-01T00:03:19;17.67;;;10.85;;
76098;SDS011;64828;49.956;8.636;2023-03-01T00:03:35;17.83;;;11.00;;
76098;SDS011;64828;49.956;8.636;2023-03-01T00:03:51;17.30;;;10.75;;
76098;SDS011;64828;49.956;8.636;2023-03-01T00:04:08;18.73;;;11.10;;
76098;SDS011;64828;49.956;8.636;2023-03-01T00:04:24;18.40;;;11.10;;
76098;SDS011;64828;49.956;8.636;2023-03-01T00:04:39;18.88;;;10.85;;
76098;SDS011;64828;49.956;8.636;2023-03-01T00:04:55;19.90;;;10.77;;
76098;SDS011;64828;49.956;8.636;2023-03-01T00:05:11;17.88;;;10.65;;
76098;SDS011;64828;49.956;8.636;2023-03-01T00:05:27;18.63;;;11.07;;
76098;SDS011;64828;49.956;8.636;2023-03-01T00:05:43;20.63;;;11.73;;
76098;SDS011;64828;49.956;8.636;2023-03-01T00:06:00;20.38;;;11.70;;
76098;SDS011;64828;49.956;8.636;2023-03-01T00:06:18;19.27;;;11.13;;
76098;SDS011;64828;49.956;8.636;2023-03-01T00:06:35;16.60;;;10.73;;
76098;SDS011;64828;49.956;8.636;2023-03-01T00:06:50;17.83;;;11.10;;
76098;SDS011;64828;49.956;8.636;2023-03-01T00:07:06;20.42;;;11.30;;
76098;SDS011;64828;49.956;8.636;2023-03-01T00:07:21;19.75;;;10.93;;
76098;SDS011;64828;49.956;8.636;2023-03-01T00:07:37;18.77;;;11.03;;
76098;SDS011;64828;49.956;8.636;2023-03-01T00:07:53;19.73;;;11.50;;
76098;SDS011;64828;49.956;8.636;2023-03-01T00:08:09;19.65;;;11.70;;
76098;SDS011;64828;49.956;8.636;2023-03-01T00:08:24;18.65;;;11.35;;
76098;SDS011;64828;49.956;8.636;2023-03-01T00:08:41;18.58;;;11.07;;
76098;SDS011;64828;49.956;8.636;2023-03-01T00:08:57;18.20;;;11.10;;
76098;SDS011;64828;49.956;8.636;2023-03-01T00:09:13;18.50;;;11.77;;
76098;SDS011;64828;49.956;8.636;2023-03-01T00:09:29;19.08;;;11.73;;
76098;SDS011;64828;49.956;8.636;2023-03-01T00:09:45;18.67;;;11.77;;
76098;SDS011;64828;49.956;8.636;2023-03-01T00:10:01;18.02;;;11.15;;
76098;SDS011;64828;49.956;8.636;2023-03-01T00:10:17;17.35;;;11.13;;
76098;SDS011;64828;49.956;8.636;2023-03-01T00:10:32;18.58;;;11.40;;
76098;SDS011;64828;49.956;8.636;2023-03-01T00:10:48;19.10;;;11.40;;
76098;SDS011;64828;49.956;8.636;2023-03-01T00:11:08;18.15;;;11.20;;
76098;SDS011;64828;49.956;8.636;2023-03-01T00:11:30;18.40;;;10.98;;
76098;SDS011;64828;49.956;8.636;2023-03-01T00:11:48;18.35;;;11.00;;
76098;SDS011;64828;49.956;8.636;2023-03-01T00:12:04;18.83;;;11.57;;
76098;SDS011;64828;49.956;8.636;2023-03-01T00:12:20;18.25;;;11.43;;
76098;SDS011;64828;49.956;8.636;2023-03-01T00:12:36;17.85;;;11.00;;
76098;SDS011;64828;49.956;8.636;2023-03-01T00:12:52;18.20;;;11.17;;
76098;SDS011;64828;49.956;8.636;2023-03-01T00:13:08;18.00;;;11.60;;
76098;SDS011;64828;49.956;8.636;2023-03-01T00:13:23;16.95;;;11.43;;
76098;SDS011;64828;49.956;8.636;2023-03-01T00:13:39;17.10;;;10.90;;
76098;SDS011;64828;49.956;8.636;2023-03-01T00:13:57;17.67;;;11.00;;
76098;SDS011;64828;49.956;8.636;2023-03-01T00:14:15;17.17;;;10.50;;
76098;SDS011;64828;49.956;8.636;2023-03-01T00:14:32;17.85;;;10.60;;
76098;SDS011;64828;49.956;8.636;2023-03-01T00:14:48;19.15;;;10.90;;
76098;SDS011;64828;49.956;8.636;2023-03-01T00:15:04;18.30;;;10.83;;
76098;SDS011;64828;49.956;8.636;2023-03-01T00:15:20;18.27;;;11.00;;
76098;SDS011;64828;49.956;8.636;2023-03-01T00:15:39;18.13;;;11.23;;
76098;SDS011;64828;49.956;8.636;2023-03-01T00:15:56;19.80;;;11.32;;
76098;SDS011;64828;49.956;8.636;2023-03-01T00:16:13;19.35;;;11.05;;
76098;SDS011;64828;49.956;8.636;2023-03-01T00:16:44;16.77;;;10.73;;
76098;SDS011;64828;49.956;8.636;2023-03-01T00:17:01;18.20;;;11.25;;
76098;SDS011;64828;49.956;8.636;2023-03-01T00:17:16;19.48;;;11.60;;
76098;SDS011;64828;49.956;8.636;2023-03-01T00:17:32;19.13;;;11.23;;
76098;SDS011;64828;49.956;8.636;2023-03-01T00:17:48;19.93;;;12.00;;
76098;SDS011;64828;49.956;8.636;2023-03-01T00:18:03;20.80;;;12.40;;
76098;SDS011;64828;49.956;8.636;2023-03-01T00:18:19;19.42;;;11.40;;
76098;SDS011;64828;49.956;8.636;2023-03-01T00:18:35;19.60;;;11.10;;
76098;SDS011;64828;49.956;8.636;2023-03-01T00:18:50;19.83;;;11.05;;
76098;SDS011;64828;49.956;8.636;2023-03-01T00:19:07;19.83;;;11.55;;
76098;SDS011;64828;49.956;8.636;2023-03-01T00:19:27;19.02;;;11.75;;
76098;SDS011;64828;49.956;8.636;2023-03-01T00:19:43;17.17;;;10.60;;
76098;SDS011;64828;49.956;8.636;2023-03-01T00:19:58;18.87;;;10.60;;
76098;SDS011;64828;49.956;8.636;2023-03-01T00:20:14;20.08;;;11.38;;
76098;SDS011;64828;49.956;8.636;2023-03-01T00:20:29;19.10;;;11.67;;
76098;SDS011;64828;49.956;8.636;2023-03-01T00:20:52;18.63;;;11.57;;
76098;SDS011;64828;49.956;8.636;2023-03-01T00:21:09;18.50;;;11.15;;
76098;SDS011;64828;49.956;8.636;2023-03-01T00:21:26;18.90;;;11.63;;
76098;SDS011;64828;49.956;8.636;2023-03-01T00:21:43;20.25;;;11.43;;
76098;SDS011;64828;49.956;8.636;2023-03-01T00:21:59;18.87;;;11.23;;
76098;SDS011;64828;49.956;8.636;2023-03-01T00:22:14;18.77;;;11.35;;
76098;SDS011;64828;49.956;8.636;2023-03-01T00:22:30;19.20;;;11.50;;
76098;SDS011;64828;49.956;8.636;2023-03-01T00:22:45;18.83;;;11.43;;
76098;SDS011;64828;49.956;8.636;2023-03-01T00:23:01;18.17;;;11.07;;
76098;SDS011;64828;49.956;8.636;2023-03-01T00:23:17;18.73;;;11.53;;
76098;SDS011;64828;49.956;8.636;2023-03-01T00:23:33;20.40;;;11.75;;
76098;SDS011;64828;49.956;8.636;2023-03-01T00:23:50;19.45;;;11.43;;
76098;SDS011;64828;49.956;8.636;2023-03-01T00:24:06;19.45;;;11.43;;
76098;SDS011;64828;49.956;8.636;2023-03-01T00:24:23;20.00;;;11.60;;
76098;SDS011;64828;49.956;8.636;2023-03-01T00:24:38;20.63;;;11.63;;
76098;SDS011;64828;49.956;8.636;2023-03-01T00:24:54;19.33;;;11.38;;
76098;SDS011;64828;49.956;8.636;2023-03-01T00:25:10;19.42;;;11.50;;
76098;SDS011;64828;49.956;8.636;2023-03-01T00:25:25;19.37;;;11.53;;
76098;SDS011;64828;49.956;8.636;2023-03-01T00:25:41;18.63;;;11.15;;
76098;SDS011;64828;49.956;8.636;2023-03-01T00:25:58;20.77;;;11.38;;
76098;SDS011;64828;49.956;8.636;2023-03-01T00:26:13;21.07;;;11.43;;
76098;SDS011;64828;49.956;8.636;2023-03-01T00:26:31;19.92;;;11.50;;
76098;SDS011;64828;49.956;8.636;2023-03-01T00:26:47;17.73;;;11.30;;
76098;SDS011;64828;49.956;8.636;2023-03-01T00:27:02;16.83;;;10.90;;
76098;SDS011;64828;49.956;8.636;2023-03-01T00:27:18;17.67;;;11.20;;
76098;SDS011;64828;49.956;8.636;2023-03-01T00:27:33;18.90;;;11.40;;
76098;SDS011;64828;49.956;8.636;2023-03-01T00:27:49;20.23;;;11.15;;
76098;SDS011;64828;49.956;8.636;2023-03-01T00:28:05;19.55;;;11.48;;
76098;SDS011;64828;49.956;8.636;2023-03-01T00:28:20;19.93;;;12.23;;
76098;SDS011;64828;49.956;8.636;2023-03-01T00:28:36;20.08;;;12.30;;
76098;SDS011;64828;49.956;8.636;2023-03-01T00:28:52;20.35;;;11.95;;
76098;SDS011;64828;49.956;8.636;2023-03-01T00:29:10;19.85;;;11.60;;
76098;SDS011;64828;49.956;8.636;2023-03-01T00:29:25;18.52;;;11.40;;
76098;SDS011;64828;49.956;8.636;2023-03-01T00:29:41;19.67;;;11.93;;
76098;SDS011;64828;49.956;8.636;2023-03-01T00:29:57;20.65;;;12.18;;
76098;SDS011;64828;49.956;8.636;2023-03-01T00:30:12;20.15;;;11.85;;
76098;SDS011;64828;49.956;8.636;2023-03-01T00:30:28;20.37;;;11.87;;
76098;SDS011;64828;49.956;8.636;2023-03-01T00:30:44;20.85;;;12.15;;
76098;SDS011;64828;49.956;8.636;2023-03-01T00:31:03;20.65;;;11.80;;
76098;SDS011;64828;49.956;8.636;2023-03-01T00:31:35;20.27;;;11.18;;
76098;SDS011;64828;49.956;8.636;2023-03-01T00:31:51;20.05;;;11.13;;
76098;SDS011;64828;49.956;8.636;2023-03-01T00:32:06;19.85;;;11.40;;
76098;SDS011;64828;49.956;8.636;2023-03-01T00:32:22;18.67;;;11.20;;
76098;SDS011;64828;49.956;8.636;2023-03-01T00:32:37;18.58;;;11.23;;
76098;SDS011;64828;49.956;8.636;2023-03-01T00:32:53;19.40;;;11.90;;
76098;SDS011;64828;49.956;8.636;2023-03-01T00:33:09;19.53;;;12.10;;
76098;SDS011;64828;49.956;8.636;2023-03-01T00:33:24;19.02;;;11.80;;
76098;SDS011;64828;49.956;8.636;2023-03-01T00:33:40;19.10;;;11.40;;
76098;SDS011;64828;49.956;8.636;2023-03-01T00:33:58;19.70;;;11.13;;
76098;SDS011;64828;49.956;8.636;2023-03-01T00:34:17;21.23;;;11.68;;
76098;SDS011;64828;49.956;8.636;2023-03-01T00:34:33;19.15;;;11.77;;
76098;SDS011;64828;49.956;8.636;2023-03-01T00:34:49;19.40;;;11.85;;
76098;SDS011;64828;49.956;8.636;2023-03-01T00:35:09;20.98;;;11.77;;
76098;SDS011;64828;49.956;8.636;2023-03-01T00:35:24;20.48;;;11.82;;
76098;SDS011;64828;49.956;8.636;2023-03-01T00:35:40;17.37;;;11.37;;
76098;SDS011;64828;49.956;8.636;2023-03-01T00:35:57;18.00;;;11.27;;
76098;SDS011;64828;49.956;8.636;2023-03-01T00:36:15;19.20;;;11.60;;
76098;SDS011;64828;49.956;8.636;2023-03-01T00:36:32;19.50;;;11.50;;
76098;SDS011;64828;49.956;8.636;2023-03-01T00:36:50;20.42;;;11.68;;
76098;SDS011;64828;49.956;8.636;2023-03-01T00:37:06;22.53;;;12.67;;
76098;SDS011;64828;49.956;8.636;2023-03-01T00:37:21;19.27;;;11.98;;
76098;SDS011;64828;49.956;8.636;2023-03-01T00:37:38;16.90;;;11.35;;
76098;SDS011;64828;49.956;8.636;2023-03-01T00:37:56;19.40;;;11.82;;
76098;SDS011;64828;49.956;8.636;2023-03-01T00:38:12;20.52;;;11.63;;
76098;SDS011;64828;49.956;8.636;2023-03-01T00:38:28;20.47;;;11.27;;
76098;SDS011;64828;49.956;8.636;2023-03-01T00:38:45;20.77;;;11.30;;
76098;SDS011;64828;49.956;8.636;2023-03-01T00:39:01;21.50;;;12.02;;
76098;SDS011;64828;49.956;8.636;2023-03-01T00:39:19;21.63;;;12.57;;
76098;SDS011;64828;49.956;8.636;2023-03-01T00:39:34;19.10;;;12.00;;
76098;SDS011;64828;49.956;8.636;2023-03-01T00:39:50;18.80;;;11.60;;
76098;SDS011;64828;49.956;8.636;2023-03-01T00:40:06;20.92;;;11.70;;
76098;SDS011;64828;49.956;8.636;2023-03-01T00:40:32;19.33;;;11.23;;
76098;SDS011;64828;49.956;8.636;2023-03-01T00:40:50;20.20;;;11.30;;
76098;SDS011;64828;49.956;8.636;2023-03-01T00:41:07;19.80;;;11.70;;
76098;SDS011;64828;49.956;8.636;2023-03-01T00:41:25;20.58;;;12.35;;
76098;SDS011;64828;49.956;8.636;2023-03-01T00:41:41;20.45;;;12.20;;
76098;SDS011;64828;49.956;8.636;2023-03-01T00:41:57;19.15;;;11.73;;
76098;SDS011;64828;49.956;8.636;2023-03-01T00:42:13;18.48;;;11.65;;
76098;SDS011;64828;49.956;8.636;2023-03-01T00:42:29;19.92;;;11.75;;
76098;SDS011;64828;49.956;8.636;2023-03-01T00:42:44;20.40;;;11.67;;
76098;SDS011;64828;49.956;8.636;2023-03-01T00:43:00;19.85;;;12.10;;
76098;SDS011;64828;49.956;8.636;2023-03-01T00:43:16;19.90;;;12.30;;
76098;SDS011;64828;49.956;8.636;2023-03-01T00:43:31;20.77;;;11.93;;
76098;SDS011;64828;49.956;8.636;2023-03-01T00:43:51;19.20;;;11.52;;
76098;SDS011;64828;49.956;8.636;2023-03-01T00:44:08;19.90;;;11.85;;
76098;SDS011;64828;49.956;8.636;2023-03-01T00:44:24;20.13;;;11.30;;
76098;SDS011;64828;49.956;8.636;2023-03-01T00:44:40;18.13;;;11.00;;
76098;SDS011;64828;49.956;8.636;2023-03-01T00:44:56;17.30;;;11.37;;
76098;SDS011;64828;49.956;8.636;2023-03-01T00:45:11;19.77;;;11.48;;
76098;SDS011;64828;49.956;8.636;2023-03-01T00:45:28;22.00;;;11.88;;
76098;SDS011;64828;49.956;8.636;2023-03-01T00:45:45;20.60;;;12.10;;
76098;SDS011;64828;49.956;8.636;2023-03-01T00:46:02;19.35;;;11.95;;
76098;SDS011;64828;49.956;8.636;2023-03-01T00:46:21;19.67;;;11.60;;
76098;SDS011;64828;49.956;8.636;2023-03-01T00:46:41;19.70;;;11.43;;
76098;SDS011;64828;49.956;8.636;2023-03-01T00:46:57;20.33;;;11.38;;
76098;SDS011;64828;49.956;8.636;2023-03-01T00:47:12;21.77;;;11.93;;
76098;SDS011;64828;49.956;8.636;2023-03-01T00:47:29;22.00;;;12.23;;
76098;SDS011;64828;49.956;8.636;2023-03-01T00:47:44;21.92;;;12.23;;
76098;SDS011;64828;49.956;8.636;2023-03-01T00:48:00;22.20;;;12.40;;
76098;SDS011;64828;49.956;8.636;2023-03-01T00:48:16;21.17;;;12.25;;
76098;SDS011;64828;49.956;8.636;2023-03-01T00:48:31;20.70;;;12.07;;
76098;SDS011;64828;49.956;8.636;2023-03-01T00:48:48;21.00;;;12.10;;
76098;SDS011;64828;49.956;8.636;2023-03-01T00:49:04;21.02;;;11.98;;
76098;SDS011;64828;49.956;8.636;2023-03-01T00:49:19;20.20;;;11.80;;
76098;SDS011;64828;49.956;8.636;2023-03-01T00:49:35;18.90;;;11.53;;
76098;SDS011;64828;49.956;8.636;2023-03-01T00:49:51;19.85;;;11.65;;
76098;SDS011;64828;49.956;8.636;2023-03-01T00:50:06;21.13;;;12.07;;
76098;SDS011;64828;49.956;8.636;2023-03-01T00:50:23;20.08;;;11.98;;
76098;SDS011;64828;49.956;8.636;2023-03-01T00:50:39;19.30;;;12.10;;
76098;SDS011;64828;49.956;8.636;2023-03-01T00:50:55;20.48;;;12.27;;
76098;SDS011;64828;49.956;8.636;2023-03-01T00:51:14;20.20;;;11.95;;
76098;SDS011;64828;49.956;8.636;2023-03-01T00:51:33;19.60;;;11.63;;
76098;SDS011;64828;49.956;8.636;2023-03-01T00:51:49;20.23;;;11.73;;
76098;SDS011;64828;49.956;8.636;2023-03-01T00:52:04;19.15;;;11.80;;
76098;SDS011;64828;49.956;8.636;2023-03-01T00:52:20;19.77;;;12.00;;
76098;SDS011;64828;49.956;8.636;2023-03-01T00:52:36;20.13;;;11.90;;
76098;SDS011;64828;49.956;8.636;2023-03-01T00:52:53;19.60;;;11.48;;
76098;SDS011;64828;49.956;8.636;2023-03-01T00:53:10;20.00;;;11.48;;
76098;SDS011;64828;49.956;8.636;2023-03-01T00:53:26;19.67;;;11.77;;
76098;SDS011;64828;49.956;8.636;2023-03-01T00:53:42;19.10;;;11.65;;
76098;SDS011;64828;49.956;8.636;2023-03-01T00:53:59;18.67;;;11.60;;
76098;SDS011;64828;49.956;8.636;2023-03-01T00:54:17;18.38;;;11.63;;
76098;SDS011;64828;49.956;8.636;2023-03-01T00:54:32;19.40;;;12.00;;
76098;SDS011;64828;49.956;8.636;2023-03-01T00:54:48;19.40;;;11.63;;
76098;SDS011;64828;49.956;8.636;2023-03-01T00:55:07;19.85;;;11.77;;
76098;SDS011;64828;49.956;8.636;2023-03-01T00:55:23;18.90;;;11.48;;
76098;SDS011;64828;49.956;8.636;2023-03-01T00:55:39;20.17;;;11.35;;
76098;SDS011;64828;49.956;8.636;2023-03-01T00:55:56;21.40;;;11.55;;
76098;SDS011;64828;49.956;8.636;2023-03-01T00:56:13;20.92;;;11.40;;
76098;SDS011;64828;49.956;8.636;2023-03-01T00:56:30;19.67;;;11.63;;
76098;SDS011;64828;49.956;8.636;2023-03-01T00:56:46;21.90;;;11.82;;
76098;SDS011;64828;49.956;8.636;2023-03-01T00:57:02;21.17;;;12.17;;
76098;SDS011;64828;49.956;8.636;2023-03-01T00:57:17;18.98;;;11.75;;
76098;SDS011;64828;49.956;8.636;2023-03-01T00:57:33;21.03;;;11.40;;
76098;SDS011;64828;49.956;8.636;2023-03-01T00:57:49;20.85;;;11.38;;
76098;SDS011;64828;49.956;8.636;2023-03-01T00:58:04;19.23;;;11.70;;
76098;SDS011;64828;49.956;8.636;2023-03-01T00:58:20;20.13;;;12.03;;
76098;SDS011;64828;49.956;8.636;2023-03-01T00:58:35;20.83;;;11.82;;
76098;SDS011;64828;49.956;8.636;2023-03-01T00:58:52;20.67;;;11.90;;
76098;SDS011;64828;49.956;8.636;2023-03-01T00:59:07;18.60;;;11.48;;
76098;SDS011;64828;49.956;8.636;2023-03-01T00:59:23;18.53;;;11.33;;
76098;SDS011;64828;49.956;8.636;2023-03-01T00:59:38;20.52;;;11.75;;
76098;SDS011;64828;49.956;8.636;2023-03-01T00:59:54;20.52;;;11.93;;
76098;SDS011;64828;49.956;8.636;2023-03-01T01:00:10;19.60;;;11.83;;
76098;SDS011;64828;49.956;8.636;2023-03-01T01:00:26;18.83;;;11.75;;
76098;SDS011;64828;49.956;8.636;2023-03-01T01:00:42;19.20;;;12.48;;
76098;SDS011;64828;49.956;8.636;2023-03-01T01:00:58;20.17;;;12.30;;
76098;SDS011;64828;49.956;8.636;2023-03-01T01:01:16;19.33;;;11.55;;
76098;SDS011;64828;49.956;8.636;2023-03-01T01:01:34;20.42;;;11.27;;
76098;SDS011;64828;49.956;8.636;2023-03-01T01:01:50;19.58;;;11.48;;
76098;SDS011;64828;49.956;8.636;2023-03-01T01:02:06;18.43;;;11.43;;
76098;SDS011;64828;49.956;8.636;2023-03-01T01:02:21;20.38;;;11.68;;
76098;SDS011;64828;49.956;8.636;2023-03-01T01:02:37;20.63;;;11.75;;
76098;SDS011;64828;49.956;8.636;2023-03-01T01:02:53;19.70;;;11.47;;
76098;SDS011;64828;49.956;8.636;2023-03-01T01:03:08;19.63;;;11.48;;
76098;SDS011;64828;49.956;8.636;2023-03-01T01:03:24;20.17;;;11.83;;
76098;SDS011;64828;49.956;8.636;2023-03-01T01:03:39;20.63;;;12.15;;
76098;SDS011;64828;49.956;8.636;2023-03-01T01:04:02;19.15;;;12.05;;
76098;SDS011;64828;49.956;8.636;2023-03-01T01:04:22;21.25;;;12.10;;
76098;SDS011;64828;49.956;8.636;2023-03-01T01:04:38;22.70;;;12.70;;
76098;SDS011;64828;49.956;8.636;2023-03-01T01:04:53;22.00;;;12.07;;
76098;SDS011;64828;49.956;8.636;2023-03-01T01:05:09;19.65;;;11.63;;
76098;SDS011;64828;49.956;8.636;2023-03-01T01:05:25;20.00;;;11.70;;
76098;SDS011;64828;49.956;8.636;2023-03-01T01:05:41;20.60;;;11.63;;
76098;SDS011;64828;49.956;8.636;2023-03-01T01:05:56;20.17;;;11.60;;
76098;SDS011;64828;49.956;8.636;2023-03-01T01:06:19;20.48;;;11.38;;
76098;SDS011;64828;49.956;8.636;2023-03-01T01:06:46;19.75;;;11.85;;
76098;SDS011;64828;49.956;8.636;2023-03-01T01:07:01;20.75;;;11.73;;
76098;SDS011;64828;49.956;8.636;2023-03-01T01:07:17;21.10;;;11.65;;
76098;SDS011;64828;49.956;8.636;2023-03-01T01:07:35;20.35;;;12.27;;
76098;SDS011;64828;49.956;8.636;2023-03-01T01:07:50;21.98;;;12.68;;
76098;SDS011;64828;49.956;8.636;2023-03-01T01:08:06;20.38;;;12.15;;
76098;SDS011;64828;49.956;8.636;2023-03-01T01:08:22;19.90;;;12.20;;
76098;SDS011;64828;49.956;8.636;2023-03-01T01:08:37;20.93;;;12.20;;
76098;SDS011;64828;49.956;8.636;2023-03-01T01:08:54;20.55;;;11.70;;
76098;SDS011;64828;49.956;8.636;2023-03-01T01:09:12;19.55;;;11.43;;
76098;SDS011;64828;49.956;8.636;2023-03-01T01:09:33;20.30;;;12.18;;
76098;SDS011;64828;49.956;8.636;2023-03-01T01:09:49;21.50;;;12.52;;
76098;SDS011;64828;49.956;8.636;2023-03-01T01:10:05;21.13;;;12.47;;
76098;SDS011;64828;49.956;8.636;2023-03-01T01:10:21;20.48;;;11.95;;
76098;SDS011;64828;49.956;8.636;2023-03-01T01:10:37;20.55;;;11.80;;
76098;SDS011;64828;49.956;8.636;2023-03-01T01:10:53;20.08;;;12.02;;
76098;SDS011;64828;49.956;8.636;2023-03-01T01:11:09;19.07;;;11.63;;
76098;SDS011;64828;49.956;8.636;2023-03-01T01:11:27;19.67;;;11.75;;
76098;SDS011;64828;49.956;8.636;2023-03-01T01:11:46;19.35;;;11.48;;
76098;SDS011;64828;49.956;8.636;2023-03-01T01:12:05;21.35;;;11.75;;
76098;SDS011;64828;49.956;8.636;2023-03-01T01:12:21;20.85;;;11.45;;
76098;SDS011;64828;49.956;8.636;2023-03-01T01:12:37;19.83;;;11.57;;
76098;SDS011;64828;49.956;8.636;2023-03-01T01:12:53;19.65;;;11.68;;
76098;SDS011;64828;49.956;8.636;2023-03-01T01:13:08;19.73;;;11.80;;
76098;SDS011;64828;49.956;8.636;2023-03-01T01:13:24;21.13;;;12.15;;
76098;SDS011;64828;49.956;8.636;2023-03-01T01:13:40;21.30;;;11.95;;
76098;SDS011;64828;49.956;8.636;2023-03-01T01:13:56;22.92;;;12.15;;
76098;SDS011;64828;49.956;8.636;2023-03-01T01:14:12;22.30;;;12.27;;
76098;SDS011;64828;49.956;8.636;2023-03-01T01:14:29;20.50;;;11.82;;
76098;SDS011;64828;49.956;8.636;2023-03-01T01:14:45;20.83;;;11.80;;
76098;SDS011;64828;49.956;8.636;2023-03-01T01:15:01;20.88;;;11.70;;
76098;SDS011;64828;49.956;8.636;2023-03-01T01:15:16;21.70;;;11.80;;
76098;SDS011;64828;49.956;8.636;2023-03-01T01:15:35;21.20;;;12.38;;
76098;SDS011;64828;49.956;8.636;2023-03-01T01:15:51;20.75;;;12.45;;
76098;SDS011;64828;49.956;8.636;2023-03-01T01:16:07;20.42;;;11.95;;
76098;SDS011;64828;49.956;8.636;2023-03-01T01:16:24;20.50;;;12.30;;
76098;SDS011;64828;49.956;8.636;2023-03-01T01:16:42;19.80;;;12.50;;
76098;SDS011;64828;49.956;8.636;2023-03-01T01:16:58;19.98;;;11.93;;
76098;SDS011;64828;49.956;8.636;2023-03-01T01:17:14;19.70;;;11.47;;
76098;SDS011;64828;49.956;8.636;2023-03-01T01:17:30;19.95;;;11.57;;
76098;SDS011;64828;49.956;8.636;2023-03-01T01:17:45;21.45;;;12.30;;
76098;SDS011;64828;49.956;8.636;2023-03-01T01:18:01;21.00;;;12.30;;
76098;SDS011;64828;49.956;8.636;2023-03-01T01:18:17;19.52;;;11.98;;
76098;SDS011;64828;49.956;8.636;2023-03-01T01:18:33;19.48;;;11.38;;
76098;SDS011;64828;49.956;8.636;2023-03-01T01:18:49;19.77;;;11.70;;
76098;SDS011;64828;49.956;8.636;2023-03-01T01:19:05;20.75;;;12.35;;
76098;SDS011;64828;49.956;8.636;2023-03-01T01:19:21;20.95;;;12.07;;
76098;SDS011;64828;49.956;8.636;2023-03-01T01:19:38;18.70;;;11.38;;
76098;SDS011;64828;49.956;8.636;2023-03-01T01:19:53;18.70;;;11.35;;
76098;SDS011;64828;49.956;8.636;2023-03-01T01:20:09;19.73;;;11.67;;
76098;SDS011;64828;49.956;8.636;2023-03-01T01:20:26;20.98;;;11.95;;
76098;SDS011;64828;49.956;8.636;2023-03-01T01:20:42;21.77;;;12.13;;
76098;SDS011;64828;49.956;8.636;2023-03-01T01:20:57;20.35;;;11.73;;
76098;SDS011;64828;49.956;8.636;2023-03-01T01:21:19;19.70;;;11.68;;
76098;SDS011;64828;49.956;8.636;2023-03-01T01:21:38;20.67;;;12.13;;
76098;SDS011;64828;49.956;8.636;2023-03-01T01:21:53;20.88;;;11.77;;
76098;SDS011;64828;49.956;8.636;2023-03-01T01:22:09;19.17;;;11.50;;
76098;SDS011;64828;49.956;8.636;2023-03-01T01:22:25;18.80;;;11.70;;
76098;SDS011;64828;49.956;8.636;2023-03-01T01:22:40;19.48;;;11.90;;
76098;SDS011;64828;49.956;8.636;2023-03-01T01:22:56;20.33;;;12.13;;
76098;SDS011;64828;49.956;8.636;2023-03-01T01:23:11;21.02;;;12.10;;
76098;SDS011;64828;49.956;8.636;2023-03-01T01:23:27;20.13;;;12.13;;
76098;SDS011;64828;49.956;8.636;2023-03-01T01:23:44;20.07;;;12.00;;
76098;SDS011;64828;49.956;8.636;2023-03-01T01:24:02;21.98;;;12.35;;
76098;SDS011;64828;49.956;8.636;2023-03-01T01:24:19;21.58;;;12.25;;
76098;SDS011;64828;49.956;8.636;2023-03-01T01:24:36;21.77;;;12.25;;
76098;SDS011;64828;49.956;8.636;2023-03-01T01:24:51;22.10;;;12.63;;
76098;SDS011;64828;49.956;8.636;2023-03-01T01:25:07;21.70;;;12.45;;
76098;SDS011;64828;49.956;8.636;2023-03-01T01:25:23;21.10;;;12.23;;
76098;SDS011;64828;49.956;8.636;2023-03-01T01:25:42;21.27;;;12.68;;
76098;SDS011;64828;49.956;8.636;2023-03-01T01:26:02;21.23;;;12.98;;
76098;SDS011;64828;49.956;8.636;2023-03-01T01:26:30;18.63;;;11.50;;
76098;SDS011;64828;49.956;8.636;2023-03-01T01:26:48;22.40;;;12.27;;
76098;SDS011;64828;49.956;8.636;2023-03-01T01:27:04;22.73;;;12.82;;
76098;SDS011;64828;49.956;8.636;2023-03-01T01:27:21;19.45;;;12.00;;
76098;SDS011;64828;49.956;8.636;2023-03-01T01:27:37;19.08;;;11.70;;
76098;SDS011;64828;49.956;8.636;2023-03-01T01:27:53;22.30;;;12.13;;
76098;SDS011;64828;49.956;8.636;2023-03-01T01:28:08;23.08;;;12.73;;
76098;SDS011;64828;49.956;8.636;2023-03-01T01:28:24;20.48;;;12.57;;
76098;SDS011;64828;49.956;8.636;2023-03-01T01:28:40;18.40;;;11.67;;
76098;SDS011;64828;49.956;8.636;2023-03-01T01:28:56;18.08;;;11.45;;
76098;SDS011;64828;49.956;8.636;2023-03-01T01:29:14;20.30;;;11.57;;
76098;SDS011;64828;49.956;8.636;2023-03-01T01:29:29;20.27;;;11.73;;
76098;SDS011;64828;49.956;8.636;2023-03-01T01:29:45;19.42;;;11.48;;
76098;SDS011;64828;49.956;8.636;2023-03-01T01:30:01;19.03;;;11.70;;
76098;SDS011;64828;49.956;8.636;2023-03-01T01:30:17;19.17;;;12.15;;
76098;SDS011;64828;49.956;8.636;2023-03-01T01:30:33;19.05;;;12.02;;
76098;SDS011;64828;49.956;8.636;2023-03-01T01:30:48;20.00;;;12.00;;
76098;SDS011;64828;49.956;8.636;2023-03-01T01:31:04;22.40;;;12.38;;
76098;SDS011;64828;49.956;8.636;2023-03-01T01:31:21;21.40;;;12.38;;
76098;SDS011;64828;49.956;8.636;2023-03-01T01:31:41;20.83;;;12.20;;
76098;SDS011;64828;49.956;8.636;2023-03-01T01:31:57;20.92;;;12.40;;
76098;SDS011;64828;49.956;8.636;2023-03-01T01:32:13;20.48;;;12.18;;
76098;SDS011;64828;49.956;8.636;2023-03-01T01:32:29;20.03;;;11.90;;
76098;SDS011;64828;49.956;8.636;2023-03-01T01:32:44;19.20;;;11.67;;
76098;SDS011;64828;49.956;8.636;2023-03-01T01:33:00;20.48;;;11.93;;
76098;SDS011;64828;49.956;8.636;2023-03-01T01:33:15;20.27;;;12.10;;
76098;SDS011;64828;49.956;8.636;2023-03-01T01:33:31;19.83;;;11.98;;
76098;SDS011;64828;49.956;8.636;2023-03-01T01:33:48;20.38;;;12.10;;
76098;SDS011;64828;49.956;8.636;2023-03-01T01:34:05;21.25;;;12.10;;
76098;SDS011;64828;49.956;8.636;2023-03-01T01:34:23;21.38;;;11.80;;
76098;SDS011;64828;49.956;8.636;2023-03-01T01:34:39;21.83;;;11.75;;
76098;SDS011;64828;49.956;8.636;2023-03-01T01:34:54;21.47;;;12.07;;
76098;SDS011;64828;49.956;8.636;2023-03-01T01:35:10;20.27;;;12.20;;
76098;SDS011;64828;49.956;8.636;2023-03-01T01:35:25;21.02;;;12.45;;
76098;SDS011;64828;49.956;8.636;2023-03-01T01:35:44;21.30;;;12.10;;
76098;SDS011;64828;49.956;8.636;2023-03-01T01:36:00;21.02;;;11.73;;
76098;SDS011;64828;49.956;8.636;2023-03-01T01:36:16;20.80;;;11.93;;
76098;SDS011;64828;49.956;8.636;2023-03-01T01:36:33;21.85;;;12.10;;
76098;SDS011;64828;49.956;8.636;2023-03-01T01:36:49;20.73;;;11.77;;
76098;SDS011;64828;49.956;8.636;2023-03-01T01:37:10;21.40;;;12.18;;